createdAt,value
2017-01-21T00:03:24.393Z,-1.20
2017-01-21T00:08:20.919Z,-1.11
2017-01-21T00:13:18.084Z,-1.20
2017-01-21T00:18:14.240Z,-1.15
2017-01-21T00:23:10.721Z,-1.19
2017-01-21T00:28:09.509Z,-1.23
2017-01-21T00:33:05.538Z,-1.38
2017-01-21T00:38:01.797Z,-1.33
2017-01-21T00:42:58.127Z,-1.20
2017-01-21T00:47:54.455Z,-1.35
2017-01-21T00:52:50.838Z,-1.44
2017-01-21T00:57:47.248Z,-1.37
2017-01-21T01:02:44.298Z,-1.23
2017-01-21T01:07:40.490Z,-1.22
2017-01-21T01:12:36.688Z,-1.23
2017-01-21T01:17:33.029Z,-1.12
2017-01-21T01:22:29.767Z,-0.97
2017-01-21T01:27:27.306Z,-0.94
2017-01-21T01:32:23.645Z,-0.94
2017-01-21T01:37:20.019Z,-0.94
2017-01-21T01:42:16.277Z,-0.94
2017-01-21T01:47:12.930Z,-1.08
2017-01-21T01:52:09.524Z,-1.05
2017-01-21T01:57:06.028Z,-1.27
2017-01-21T02:02:02.419Z,-1.26
2017-01-21T02:06:58.686Z,-1.27
2017-01-21T02:11:54.881Z,-1.20
2017-01-21T02:16:50.780Z,-1.02
2017-01-21T02:21:47.280Z,-0.97
2017-01-21T02:26:44.374Z,-1.05
2017-01-21T02:31:40.605Z,-1.20
2017-01-21T02:36:36.879Z,-1.29
2017-01-21T02:41:33.725Z,-1.37
2017-01-21T02:46:29.980Z,-1.37
2017-01-21T02:51:26.402Z,-1.44
2017-01-21T02:56:22.559Z,-1.41
2017-01-21T03:01:18.678Z,-1.37
2017-01-21T03:06:14.936Z,-1.33
2017-01-21T03:11:11.191Z,-1.44
2017-01-21T03:16:07.544Z,-1.44
2017-01-21T03:21:03.756Z,-1.50
2017-01-21T03:26:00.230Z,-1.51
2017-01-21T03:30:56.757Z,-1.54
2017-01-21T03:35:53.108Z,-1.50
2017-01-21T03:40:50.520Z,-1.38
2017-01-21T03:45:46.313Z,-1.40
2017-01-21T03:50:43.057Z,-1.44
2017-01-21T03:55:39.353Z,-1.50
2017-01-21T04:00:35.847Z,-1.44
2017-01-21T04:05:32.116Z,-1.54
2017-01-21T04:10:28.325Z,-1.66
2017-01-21T04:15:24.632Z,-1.72
2017-01-21T04:20:20.854Z,-1.74
2017-01-21T04:25:17.045Z,-1.76
2017-01-21T04:30:14.074Z,-1.76
2017-01-21T04:35:11.209Z,-1.71
2017-01-21T04:40:07.432Z,-1.74
2017-01-21T04:45:03.570Z,-1.98
2017-01-21T04:50:00.054Z,-1.89
2017-01-21T04:54:56.407Z,-1.83
2017-01-21T04:59:53.446Z,-1.76
2017-01-21T05:04:50.766Z,-1.97
2017-01-21T05:09:46.517Z,-1.90
2017-01-21T05:14:43.779Z,-1.83
2017-01-21T05:19:40.018Z,-1.82
2017-01-21T05:24:36.326Z,-1.76
2017-01-21T05:29:32.319Z,-1.77
2017-01-21T05:34:28.726Z,-1.83
2017-01-21T05:39:24.924Z,-1.86
2017-01-21T05:44:21.441Z,-1.94
2017-01-21T05:49:17.721Z,-1.92
2017-01-21T05:54:14.728Z,-1.83
2017-01-21T05:59:11.143Z,-1.77
2017-01-21T06:04:07.490Z,-1.61
2017-01-21T06:09:03.677Z,-1.65
2017-01-21T06:13:59.750Z,-1.79
2017-01-21T06:18:56.263Z,-1.86
2017-01-21T06:23:52.516Z,-1.95
2017-01-21T06:28:48.911Z,-2.07
2017-01-21T06:33:45.215Z,-2.18
2017-01-21T06:38:41.774Z,-2.22
2017-01-21T06:43:38.851Z,-2.10
2017-01-21T06:48:36.112Z,-2.02
2017-01-21T06:53:32.136Z,-1.95
2017-01-21T06:58:28.019Z,-1.89
2017-01-21T07:03:24.303Z,-1.94
2017-01-21T07:08:20.546Z,-1.86
2017-01-21T07:13:16.869Z,-1.92
2017-01-21T07:18:13.083Z,-2.01
2017-01-21T07:23:09.313Z,-1.97
2017-01-21T07:28:05.831Z,-2.01
2017-01-21T07:33:02.191Z,-1.97
2017-01-21T07:37:58.433Z,-1.92
2017-01-21T07:42:54.952Z,-1.86
2017-01-21T07:47:52.102Z,-1.83
2017-01-21T07:52:48.515Z,-1.87
2017-01-21T07:57:44.605Z,-1.86
2017-01-21T08:02:40.848Z,-1.84
2017-01-21T08:07:37.112Z,-1.84
2017-01-21T08:12:33.475Z,-1.90
2017-01-21T08:17:29.600Z,-1.58
2017-01-21T08:22:25.872Z,-1.50
2017-01-21T08:27:22.868Z,-1.33
2017-01-21T08:32:19.193Z,-1.12
2017-01-21T08:37:15.666Z,-0.90
2017-01-21T08:42:11.980Z,-0.89
2017-01-21T08:47:08.410Z,-0.65
2017-01-21T08:52:05.025Z,-0.64
2017-01-21T08:57:01.330Z,-0.50
2017-01-21T09:01:58.860Z,-0.41
2017-01-21T09:06:54.952Z,-0.26
2017-01-21T09:11:52.130Z,-0.14
2017-01-21T09:16:48.769Z,0.01
2017-01-21T09:21:45.111Z,0.08
2017-01-21T09:26:41.382Z,0.28
2017-01-21T09:31:40.661Z,0.46
2017-01-21T09:36:36.435Z,0.65
2017-01-21T09:41:32.863Z,1.06
2017-01-21T09:46:31.157Z,1.42
2017-01-21T09:51:27.429Z,1.92
2017-01-21T09:56:23.913Z,1.70
2017-01-21T10:01:20.228Z,1.76
2017-01-21T10:06:16.774Z,1.88
2017-01-21T10:11:13.372Z,2.33
2017-01-21T10:16:10.137Z,3.07
2017-01-21T10:21:06.900Z,3.07
2017-01-21T10:26:03.876Z,2.60
2017-01-21T10:31:00.273Z,2.89
2017-01-21T10:35:57.058Z,2.72
2017-01-21T10:40:54.319Z,2.51
2017-01-21T10:45:51.144Z,2.82
2017-01-21T10:50:47.520Z,2.97
2017-01-21T10:55:44.369Z,2.98
2017-01-21T11:00:40.754Z,3.31
2017-01-21T11:05:37.961Z,3.78
2017-01-21T11:10:34.578Z,4.40
2017-01-21T11:15:31.293Z,5.56
2017-01-21T11:20:29.090Z,6.60
2017-01-21T11:25:25.697Z,7.29
2017-01-21T11:30:22.456Z,6.75
2017-01-21T11:35:20.229Z,7.10
2017-01-21T11:40:16.672Z,7.18
2017-01-21T11:45:13.858Z,6.92
2017-01-21T11:50:10.618Z,6.64
2017-01-21T11:55:06.832Z,6.96
2017-01-21T12:00:03.455Z,5.25
2017-01-21T12:04:59.429Z,5.21
2017-01-21T12:09:55.734Z,5.56
2017-01-21T12:14:52.147Z,5.44
2017-01-21T12:19:51.531Z,5.41
2017-01-21T12:24:46.953Z,5.36
2017-01-21T12:29:43.320Z,5.02
2017-01-21T12:34:39.567Z,4.86
2017-01-21T12:39:36.082Z,4.96
2017-01-21T12:44:32.537Z,4.59
2017-01-21T12:49:29.187Z,4.56
2017-01-21T12:54:25.638Z,4.62
2017-01-21T12:59:22.913Z,4.62
2017-01-21T13:04:19.265Z,4.63
2017-01-21T13:09:15.552Z,4.66
2017-01-21T13:14:11.682Z,4.55
2017-01-21T13:19:08.050Z,4.62
2017-01-21T13:24:04.365Z,4.60
2017-01-21T13:29:01.090Z,4.66
2017-01-21T13:33:57.559Z,4.66
2017-01-21T13:38:53.950Z,4.66
2017-01-21T13:43:50.570Z,4.53
2017-01-21T13:48:46.970Z,4.41
2017-01-21T13:53:42.998Z,4.44
2017-01-21T13:58:39.609Z,4.45
2017-01-21T14:03:36.181Z,4.35
2017-01-21T14:08:32.581Z,4.48
2017-01-21T14:13:29.184Z,4.71
2017-01-21T14:18:26.762Z,4.74
2017-01-21T14:23:23.371Z,4.73
2017-01-21T14:28:20.278Z,4.53
2017-01-21T14:33:17.261Z,4.26
2017-01-21T14:38:13.987Z,4.14
2017-01-21T14:43:10.341Z,4.01
2017-01-21T14:48:06.366Z,3.96
2017-01-21T14:53:02.725Z,3.92
2017-01-21T14:57:58.954Z,3.70
2017-01-21T15:02:56.685Z,3.60
2017-01-21T15:07:52.655Z,3.70
2017-01-21T15:12:48.947Z,3.66
2017-01-21T15:17:45.438Z,3.59
2017-01-21T15:22:41.757Z,3.36
2017-01-21T15:27:38.236Z,3.21
2017-01-21T15:32:34.581Z,3.10
2017-01-21T15:37:31.519Z,3.03
2017-01-21T15:42:27.868Z,3.01
2017-01-21T15:47:24.140Z,2.87
2017-01-21T15:52:20.463Z,2.80
2017-01-21T15:57:16.524Z,2.64
2017-01-21T16:02:12.881Z,2.47
2017-01-21T16:07:09.389Z,2.46
2017-01-21T16:12:05.627Z,2.35
2017-01-21T16:17:02.086Z,2.49
2017-01-21T16:21:59.226Z,2.32
2017-01-21T16:26:56.825Z,2.26
2017-01-21T16:31:52.985Z,2.11
2017-01-21T16:36:49.720Z,1.87
2017-01-21T16:41:45.830Z,1.85
2017-01-21T16:46:42.074Z,1.94
2017-01-21T16:51:38.633Z,1.94
2017-01-21T16:56:35.140Z,1.80
2017-01-21T17:01:31.594Z,1.58
2017-01-21T17:06:27.731Z,1.41
2017-01-21T17:11:24.319Z,1.40
2017-01-21T17:16:20.568Z,1.34
2017-01-21T17:21:16.975Z,1.24
2017-01-21T17:31:13.092Z,1.14
2017-01-21T17:36:09.337Z,1.01
2017-01-21T17:41:05.603Z,1.02
2017-01-21T17:46:01.976Z,0.96
2017-01-21T17:50:57.956Z,1.04
2017-01-21T17:55:54.167Z,0.94
2017-01-21T18:00:50.622Z,0.99
2017-01-21T18:05:46.955Z,0.74
2017-01-21T18:10:43.268Z,0.70
2017-01-21T18:15:40.476Z,0.76
2017-01-21T18:20:36.723Z,0.65
2017-01-21T18:25:32.964Z,0.73
2017-01-21T18:30:29.231Z,0.80
2017-01-21T18:35:25.588Z,0.66
2017-01-21T18:40:22.130Z,0.76
2017-01-21T18:45:18.444Z,0.39
2017-01-21T18:50:14.895Z,0.43
2017-01-21T18:55:12.417Z,0.62
2017-01-21T19:00:08.598Z,0.52
2017-01-21T19:05:06.222Z,0.23
2017-01-21T19:10:02.531Z,0.23
2017-01-21T19:14:58.945Z,0.16
2017-01-21T19:19:55.312Z,0.12
2017-01-21T19:24:51.778Z,0.03
2017-01-21T19:29:47.951Z,0.10
2017-01-21T19:34:44.166Z,0.21
2017-01-21T19:39:40.367Z,0.10
2017-01-21T19:44:36.519Z,0.25
2017-01-21T19:49:33.142Z,0.08
2017-01-21T19:54:30.428Z,-0.07
2017-01-21T19:59:26.342Z,-0.21
2017-01-21T20:04:22.769Z,-0.25
2017-01-21T20:09:19.056Z,-0.32
2017-01-21T20:14:15.379Z,-0.39
2017-01-21T20:19:11.431Z,-0.61
2017-01-21T20:24:07.557Z,-0.71
2017-01-21T20:29:03.992Z,-0.46
2017-01-21T20:34:00.114Z,-0.35
2017-01-21T20:38:56.400Z,-0.49
2017-01-21T20:43:52.775Z,-0.61
2017-01-21T20:48:49.238Z,-0.57
2017-01-21T20:53:45.734Z,-0.65
2017-01-21T20:58:42.155Z,-0.49
2017-01-21T21:03:39.315Z,-0.34
2017-01-21T21:08:35.348Z,-0.35
2017-01-21T21:13:31.492Z,-0.53
2017-01-21T21:18:27.993Z,-0.70
2017-01-21T21:23:24.149Z,-0.80
2017-01-21T21:28:21.278Z,-0.93
2017-01-21T21:33:18.328Z,-0.86
2017-01-21T21:38:15.376Z,-0.99
2017-01-21T21:43:11.802Z,-0.97
2017-01-21T21:48:08.133Z,-1.08
2017-01-21T21:53:04.529Z,-1.11
2017-01-21T21:58:01.289Z,-1.09
2017-01-21T22:02:58.426Z,-0.96
2017-01-21T22:07:54.979Z,-1.05
2017-01-21T22:12:51.247Z,-1.09
2017-01-21T22:17:47.501Z,-1.07
2017-01-21T22:22:44.416Z,-1.15
2017-01-21T22:27:40.244Z,-1.15
2017-01-21T22:32:36.603Z,-0.90
2017-01-21T22:37:33.258Z,-0.83
2017-01-21T22:42:30.812Z,-1.15
2017-01-21T22:47:26.657Z,-1.26
2017-01-21T22:52:25.101Z,-1.29
2017-01-21T22:57:20.515Z,-1.12
2017-01-21T23:02:16.699Z,-1.29
2017-01-21T23:07:12.949Z,-1.22
2017-01-21T23:12:09.297Z,-1.43
2017-01-21T23:17:05.490Z,-1.27
2017-01-21T23:22:01.539Z,-1.40
2017-01-21T23:26:57.783Z,-1.27
2017-01-21T23:31:54.438Z,-1.41
2017-01-21T23:36:52.388Z,-1.33
2017-01-21T23:41:48.631Z,-1.41
2017-01-21T23:46:45.185Z,-1.59
2017-01-21T23:51:41.008Z,-1.65
2017-01-21T23:56:37.341Z,-1.62
